Time,TemperatureF,DewpointF,PressureIn,WindDirection,WindDirectionDegrees,WindSpeedMPH,WindSpeedGustMPH,Humidity,HourlyPrecipIn,Conditions,Clouds,dailyrainin,SolarRadiationWatts/m^2,SoftwareType,DateUTC
2013-06-27 00:01:00,73.0,69.5,29.78,NW,305,0.0,0.0,89,0.00,,,0.00,0,HR-IXPWINDi_r2_v1.2.,2013-06-27 04:01:00,
2013-06-27 00:06:00,73.0,69.8,29.77,NW,305,0.0,0.0,90,0.00,,,0.00,0,HR-IXPWINDi_r2_v1.2.,2013-06-27 04:06:00,
2013-06-27 00:11:00,73.0,69.8,29.77,NW,305,0.0,0.0,90,0.00,,,0.00,0,HR-IXPWINDi_r2_v1.2.,2013-06-27 04:11:00,
2013-06-27 00:16:00,73.0,69.8,29.77,NW,305,0.0,0.0,90,0.00,,,0.00,0,HR-IXPWINDi_r2_v1.2.,2013-06-27 04:16:00,
2013-06-27 00:22:00,72.8,69.6,29.77,NW,305,0.0,0.0,90,0.00,,,0.00,0,HR-IXPWINDi_r2_v1.2.,2013-06-27 04:22:00,
2013-06-27 00:27:00,72.8,69.6,29.77,NW,305,0.0,0.0,90,0.00,,,0.00,0,HR-IXPWINDi_r2_v1.2.,2013-06-27 04:27:00,
2013-06-27 00:32:00,72.7,69.5,29.77,NW,305,0.0,0.0,90,0.00,,,0.00,0,HR-IXPWINDi_r2_v1.2.,2013-06-27 04:32:00,
2013-06-27 00:37:00,72.7,69.5,29.77,NW,305,0.0,0.0,90,0.00,,,0.00,0,HR-IXPWINDi_r2_v1.2.,2013-06-27 04:37:00,
2013-06-27 00:42:00,72.5,69.3,29.77,NW,305,0.0,0.0,90,0.00,,,0.00,0,HR-IXPWINDi_r2_v1.2.,2013-06-27 04:42:00,
2013-06-27 00:48:00,72.3,69.1,29.77,NW,305,0.0,0.0,90,0.00,,,0.00,0,HR-IXPWINDi_r2_v1.2.,2013-06-27 04:48:00,
2013-06-27 00:53:00,72.3,69.1,29.77,NW,305,0.0,0.0,90,0.00,,,0.00,0,HR-IXPWINDi_r2_v1.2.,2013-06-27 04:53:00,
2013-06-27 00:58:00,72.3,69.1,29.77,NW,304,0.0,0.0,90,0.00,,,0.00,0,HR-IXPWINDi_r2_v1.2.,2013-06-27 04:58:00,
2013-06-27 01:04:00,72.1,68.9,29.77,NW,305,0.0,0.0,90,0.00,,,0.00,0,HR-IXPWINDi_r2_v1.2.,2013-06-27 05:04:00,
2013-06-27 01:09:00,72.0,68.8,29.76,NW,305,0.0,0.0,90,0.00,,,0.00,0,HR-IXPWINDi_r2_v1.2.,2013-06-27 05:09:00,
2013-06-27 01:14:00,71.8,68.6,29.76,NW,305,0.0,0.0,90,0.00,,,0.00,0,HR-IXPWINDi_r2_v1.2.,2013-06-27 05:14:00,
2013-06-27 01:19:00,71.8,68.6,29.76,NW,305,0.0,0.0,90,0.00,,,0.00,0,HR-IXPWINDi_r2_v1.2.,2013-06-27 05:19:00,
2013-06-27 01:25:00,71.6,68.4,29.75,NW,305,0.0,0.0,90,0.00,,,0.00,0,HR-IXPWINDi_r2_v1.2.,2013-06-27 05:25:00,
2013-06-27 01:30:00,71.6,68.4,29.75,NW,305,0.0,0.0,90,0.00,,,0.00,0,HR-IXPWINDi_r2_v1.2.,2013-06-27 05:30:00,
2013-06-27 01:35:00,71.5,68.3,29.75,NW,305,0.0,0.0,90,0.00,,,0.00,0,HR-IXPWINDi_r2_v1.2.,2013-06-27 05:35:00,
2013-06-27 01:40:00,71.3,68.5,29.75,NW,305,0.0,0.0,91,0.00,,,0.00,0,HR-IXPWINDi_r2_v1.2.,2013-06-27 05:40:00,
2013-06-27 01:46:00,71.3,68.5,29.75,NW,305,0.0,0.0,91,0.00,,,0.00,0,HR-IXPWINDi_r2_v1.2.,2013-06-27 05:46:00,
2013-06-27 01:51:00,71.1,68.3,29.75,NW,305,0.0,0.0,91,0.00,,,0.00,0,HR-IXPWINDi_r2_v1.2.,2013-06-27 05:51:00,
2013-06-27 01:56:00,70.9,68.1,29.75,NW,305,0.0,0.0,91,0.00,,,0.00,0,HR-IXPWINDi_r2_v1.2.,2013-06-27 05:56:00,
2013-06-27 02:01:00,70.9,68.1,29.75,NW,304,0.0,0.0,91,0.00,,,0.00,0,HR-IXPWINDi_r2_v1.2.,2013-06-27 06:01:00,
2013-06-27 02:06:00,71.1,68.3,29.74,NW,304,0.0,0.0,91,0.00,,,0.00,0,HR-IXPWINDi_r2_v1.2.,2013-06-27 06:06:00,
2013-06-27 02:11:00,70.9,68.1,29.74,NW,305,0.0,0.0,91,0.00,,,0.00,0,HR-IXPWINDi_r2_v1.2.,2013-06-27 06:11:00,
2013-06-27 02:16:00,70.8,68.0,29.74,NW,305,0.0,0.0,91,0.00,,,0.00,0,HR-IXPWINDi_r2_v1.2.,2013-06-27 06:16:00,
2013-06-27 02:23:00,70.6,67.8,29.74,NW,305,0.0,0.0,91,0.00,,,0.00,0,HR-IXPWINDi_r2_v1.2.,2013-06-27 06:23:00,
2013-06-27 02:28:00,70.4,67.6,29.74,NW,304,0.0,0.0,91,0.00,,,0.00,0,HR-IXPWINDi_r2_v1.2.,2013-06-27 06:28:00,
2013-06-27 02:33:00,70.4,67.9,29.74,NW,305,0.0,0.0,92,0.00,,,0.00,0,HR-IXPWINDi_r2_v1.2.,2013-06-27 06:33:00,
2013-06-27 02:38:00,70.4,67.9,29.73,NW,305,0.0,0.0,92,0.00,,,0.00,0,HR-IXPWINDi_r2_v1.2.,2013-06-27 06:38:00,
2013-06-27 02:44:00,70.6,68.1,29.73,NW,305,0.0,0.0,92,0.00,,,0.00,0,HR-IXPWINDi_r2_v1.2.,2013-06-27 06:44:00,
2013-06-27 02:49:00,70.8,68.3,29.73,NW,304,0.0,0.0,92,0.00,,,0.00,0,HR-IXPWINDi_r2_v1.2.,2013-06-27 06:49:00,
2013-06-27 02:54:00,70.8,68.3,29.73,NW,305,0.0,0.0,92,0.00,,,0.00,0,HR-IXPWINDi_r2_v1.2.,2013-06-27 06:54:00,
2013-06-27 02:59:00,70.8,68.3,29.73,NW,305,0.0,0.0,92,0.00,,,0.00,0,HR-IXPWINDi_r2_v1.2.,2013-06-27 06:59:00,
2013-06-27 03:04:00,70.6,68.1,29.73,NW,305,0.0,0.0,92,0.00,,,0.00,0,HR-IXPWINDi_r2_v1.2.,2013-06-27 07:04:00,
2013-06-27 03:09:00,70.6,68.1,29.73,NW,305,0.0,0.0,92,0.00,,,0.00,0,HR-IXPWINDi_r2_v1.2.,2013-06-27 07:09:00,
2013-06-27 03:15:00,70.4,67.9,29.73,NW,305,0.0,0.0,92,0.00,,,0.00,0,HR-IXPWINDi_r2_v1.2.,2013-06-27 07:15:00,
2013-06-27 03:20:00,70.3,67.8,29.72,NW,305,0.0,0.0,92,0.00,,,0.00,0,HR-IXPWINDi_r2_v1.2.,2013-06-27 07:20:00,
2013-06-27 03:25:00,70.3,67.8,29.72,NW,305,0.0,0.0,92,0.00,,,0.00,0,HR-IXPWINDi_r2_v1.2.,2013-06-27 07:25:00,
2013-06-27 03:30:00,70.4,67.9,29.72,NW,305,0.0,0.0,92,0.00,,,0.00,0,HR-IXPWINDi_r2_v1.2.,2013-06-27 07:30:00,
2013-06-27 03:36:00,70.6,68.1,29.72,NW,305,0.0,0.0,92,0.00,,,0.00,0,HR-IXPWINDi_r2_v1.2.,2013-06-27 07:36:00,
2013-06-27 03:41:00,70.6,68.1,29.72,NW,305,0.0,0.0,92,0.00,,,0.00,0,HR-IXPWINDi_r2_v1.2.,2013-06-27 07:41:00,
2013-06-27 03:46:00,70.4,67.9,29.72,NW,305,0.0,0.0,92,0.00,,,0.00,0,HR-IXPWINDi_r2_v1.2.,2013-06-27 07:46:00,
2013-06-27 03:51:00,70.1,67.6,29.73,NW,304,0.0,0.0,92,0.00,,,0.00,0,HR-IXPWINDi_r2_v1.2.,2013-06-27 07:51:00,
2013-06-27 03:57:00,70.1,67.6,29.73,NW,304,0.0,0.0,92,0.00,,,0.00,0,HR-IXPWINDi_r2_v1.2.,2013-06-27 07:57:00,
2013-06-27 04:02:00,70.3,67.8,29.73,NW,304,0.0,0.0,92,0.00,,,0.00,0,HR-IXPWINDi_r2_v1.2.,2013-06-27 08:02:00,
2013-06-27 04:07:00,70.4,67.9,29.73,NW,305,0.0,0.0,92,0.00,,,0.00,0,HR-IXPWINDi_r2_v1.2.,2013-06-27 08:07:00,
2013-06-27 04:12:00,70.4,67.9,29.73,NW,305,0.0,0.0,92,0.00,,,0.00,0,HR-IXPWINDi_r2_v1.2.,2013-06-27 08:12:00,
2013-06-27 04:17:00,70.6,68.1,29.73,NW,305,0.0,0.0,92,0.00,,,0.00,0,HR-IXPWINDi_r2_v1.2.,2013-06-27 08:17:00,
2013-06-27 04:23:00,70.6,68.1,29.73,NW,305,0.0,0.0,92,0.00,,,0.00,0,HR-IXPWINDi_r2_v1.2.,2013-06-27 08:23:00,
2013-06-27 04:28:00,70.4,67.9,29.73,NW,305,0.0,0.0,92,0.00,,,0.00,0,HR-IXPWINDi_r2_v1.2.,2013-06-27 08:28:00,
2013-06-27 04:33:00,70.4,67.9,29.73,NW,304,0.0,0.0,92,0.00,,,0.00,0,HR-IXPWINDi_r2_v1.2.,2013-06-27 08:33:00,
2013-06-27 04:38:00,70.6,68.4,29.73,NW,305,0.0,0.0,93,0.00,,,0.00,0,HR-IXPWINDi_r2_v1.2.,2013-06-27 08:38:00,
2013-06-27 04:43:00,70.6,68.4,29.73,NW,305,0.0,0.0,93,0.00,,,0.00,0,HR-IXPWINDi_r2_v1.2.,2013-06-27 08:43:00,
2013-06-27 04:48:00,70.6,68.4,29.73,NW,305,0.0,0.0,93,0.00,,,0.00,0,HR-IXPWINDi_r2_v1.2.,2013-06-27 08:48:00,
2013-06-27 04:53:00,70.4,68.2,29.73,NW,305,0.0,0.0,93,0.00,,,0.00,0,HR-IXPWINDi_r2_v1.2.,2013-06-27 08:53:00,
2013-06-27 04:59:00,70.4,68.2,29.73,NW,304,0.0,0.0,93,0.00,,,0.00,0,HR-IXPWINDi_r2_v1.2.,2013-06-27 08:59:00,
2013-06-27 05:04:00,70.4,68.2,29.73,NW,305,0.0,0.0,93,0.00,,,0.00,0,HR-IXPWINDi_r2_v1.2.,2013-06-27 09:04:00,
2013-06-27 05:09:00,70.6,68.4,29.74,NW,305,0.0,0.0,93,0.00,,,0.00,0,HR-IXPWINDi_r2_v1.2.,2013-06-27 09:09:00,
2013-06-27 05:14:00,70.6,68.4,29.74,NW,305,0.0,0.0,93,0.00,,,0.00,0,HR-IXPWINDi_r2_v1.2.,2013-06-27 09:14:00,
2013-06-27 05:19:00,70.6,68.4,29.74,NW,305,0.0,0.0,93,0.00,,,0.00,0,HR-IXPWINDi_r2_v1.2.,2013-06-27 09:19:00,
2013-06-27 05:24:00,70.6,68.4,29.74,NW,305,0.0,0.0,93,0.00,,,0.00,0,HR-IXPWINDi_r2_v1.2.,2013-06-27 09:24:00,
2013-06-27 05:30:00,70.4,68.2,29.74,NW,305,0.0,0.0,93,0.00,,,0.00,0,HR-IXPWINDi_r2_v1.2.,2013-06-27 09:30:00,
2013-06-27 05:35:00,70.4,68.2,29.74,NW,305,0.0,0.0,93,0.00,,,0.00,0,HR-IXPWINDi_r2_v1.2.,2013-06-27 09:35:00,
2013-06-27 05:40:00,70.4,68.2,29.74,NW,305,0.0,0.0,93,0.00,,,0.00,0,HR-IXPWINDi_r2_v1.2.,2013-06-27 09:40:00,
2013-06-27 05:45:00,70.3,68.1,29.74,NW,304,0.0,0.0,93,0.00,,,0.00,0,HR-IXPWINDi_r2_v1.2.,2013-06-27 09:45:00,
2013-06-27 05:50:00,70.4,68.2,29.74,NW,305,0.0,0.0,93,0.00,,,0.00,0,HR-IXPWINDi_r2_v1.2.,2013-06-27 09:50:00,
2013-06-27 05:56:00,70.6,68.4,29.74,NW,305,0.0,0.0,93,0.00,,,0.00,0,HR-IXPWINDi_r2_v1.2.,2013-06-27 09:56:00,
2013-06-27 06:01:00,70.8,68.6,29.74,NW,305,0.0,0.0,93,0.00,,,0.00,0,HR-IXPWINDi_r2_v1.2.,2013-06-27 10:01:00,
2013-06-27 06:06:00,70.9,68.7,29.74,NW,305,0.0,0.0,93,0.00,,,0.00,9,HR-IXPWINDi_r2_v1.2.,2013-06-27 10:06:00,
2013-06-27 06:11:00,71.1,68.9,29.74,NW,304,0.0,0.0,93,0.00,,,0.00,9,HR-IXPWINDi_r2_v1.2.,2013-06-27 10:11:00,
2013-06-27 06:16:00,71.3,69.1,29.74,NW,305,0.0,0.0,93,0.00,,,0.00,14,HR-IXPWINDi_r2_v1.2.,2013-06-27 10:16:00,
2013-06-27 06:21:00,71.3,69.1,29.75,NW,305,0.0,0.0,93,0.00,,,0.00,14,HR-IXPWINDi_r2_v1.2.,2013-06-27 10:21:00,
2013-06-27 06:26:00,71.3,69.1,29.75,NW,305,0.0,0.0,93,0.00,,,0.00,18,HR-IXPWINDi_r2_v1.2.,2013-06-27 10:26:00,
2013-06-27 06:31:00,71.5,69.3,29.75,NW,305,0.0,0.0,93,0.00,,,0.00,21,HR-IXPWINDi_r2_v1.2.,2013-06-27 10:31:00,
2013-06-27 06:37:00,71.6,69.4,29.75,NW,305,0.0,0.0,93,0.00,,,0.00,18,HR-IXPWINDi_r2_v1.2.,2013-06-27 10:37:00,
2013-06-27 06:42:00,71.8,69.6,29.75,NW,304,0.0,0.0,93,0.00,,,0.00,11,HR-IXPWINDi_r2_v1.2.,2013-06-27 10:42:00,
2013-06-27 06:47:00,71.8,69.6,29.75,NW,305,0.0,0.0,93,0.00,,,0.00,11,HR-IXPWINDi_r2_v1.2.,2013-06-27 10:47:00,
2013-06-27 06:52:00,72.0,69.8,29.76,NW,304,0.0,0.0,93,0.00,,,0.00,9,HR-IXPWINDi_r2_v1.2.,2013-06-27 10:52:00,
2013-06-27 06:57:00,72.1,69.9,29.76,NW,304,0.0,0.0,93,0.00,,,0.00,12,HR-IXPWINDi_r2_v1.2.,2013-06-27 10:57:00,
2013-06-27 07:03:00,72.3,70.1,29.76,NW,305,0.0,0.0,93,0.00,,,0.00,19,HR-IXPWINDi_r2_v1.2.,2013-06-27 11:03:00,
2013-06-27 07:08:00,72.3,70.1,29.76,NW,305,0.0,0.0,93,0.00,,,0.00,25,HR-IXPWINDi_r2_v1.2.,2013-06-27 11:08:00,
2013-06-27 07:13:00,72.3,70.1,29.76,NW,304,0.0,0.0,93,0.00,,,0.00,30,HR-IXPWINDi_r2_v1.2.,2013-06-27 11:13:00,
2013-06-27 07:18:00,72.5,70.3,29.76,NW,305,0.0,0.0,93,0.00,,,0.00,35,HR-IXPWINDi_r2_v1.2.,2013-06-27 11:18:00,
2013-06-27 07:23:00,72.7,70.5,29.76,NW,305,0.0,0.0,93,0.00,,,0.00,40,HR-IXPWINDi_r2_v1.2.,2013-06-27 11:23:00,
2013-06-27 07:29:00,72.8,70.6,29.76,NW,305,0.0,0.0,93,0.00,,,0.00,42,HR-IXPWINDi_r2_v1.2.,2013-06-27 11:29:00,
2013-06-27 07:34:00,72.8,70.6,29.76,NW,305,0.0,0.0,93,0.00,,,0.00,46,HR-IXPWINDi_r2_v1.2.,2013-06-27 11:34:00,
2013-06-27 07:39:00,73.0,70.8,29.76,NW,305,0.0,0.0,93,0.00,,,0.00,53,HR-IXPWINDi_r2_v1.2.,2013-06-27 11:39:00,
2013-06-27 07:44:00,73.2,71.0,29.76,NW,304,0.0,0.0,93,0.00,,,0.00,67,HR-IXPWINDi_r2_v1.2.,2013-06-27 11:44:00,
2013-06-27 07:49:00,73.5,71.3,29.76,NW,305,0.0,0.0,93,0.00,,,0.00,74,HR-IXPWINDi_r2_v1.2.,2013-06-27 11:49:00,
2013-06-27 07:54:00,73.7,71.5,29.76,NW,305,0.0,0.0,93,0.00,,,0.00,102,HR-IXPWINDi_r2_v1.2.,2013-06-27 11:54:00,
2013-06-27 07:59:00,73.9,71.7,29.76,NW,305,0.0,0.0,93,0.00,,,0.00,77,HR-IXPWINDi_r2_v1.2.,2013-06-27 11:59:00,
2013-06-27 08:05:00,74.2,72.0,29.75,NW,305,0.0,0.0,93,0.00,,,0.00,62,HR-IXPWINDi_r2_v1.2.,2013-06-27 12:05:00,
2013-06-27 08:10:00,74.4,72.2,29.75,NW,305,0.0,0.0,93,0.00,,,0.00,74,HR-IXPWINDi_r2_v1.2.,2013-06-27 12:10:00,
2013-06-27 08:15:00,74.6,72.4,29.75,NW,305,0.0,0.0,93,0.00,,,0.00,100,HR-IXPWINDi_r2_v1.2.,2013-06-27 12:15:00,
2013-06-27 08:20:00,74.7,72.5,29.75,NW,305,0.0,0.0,93,0.00,,,0.00,116,HR-IXPWINDi_r2_v1.2.,2013-06-27 12:20:00,
2013-06-27 08:26:00,74.9,72.7,29.75,NW,305,0.0,0.0,93,0.00,,,0.00,74,HR-IXPWINDi_r2_v1.2.,2013-06-27 12:26:00,
2013-06-27 08:31:00,75.1,72.6,29.75,NW,305,0.0,0.0,92,0.00,,,0.00,88,HR-IXPWINDi_r2_v1.2.,2013-06-27 12:31:00,
2013-06-27 08:36:00,75.1,72.6,29.75,NW,305,0.0,0.0,92,0.00,,,0.00,86,HR-IXPWINDi_r2_v1.2.,2013-06-27 12:36:00,
2013-06-27 08:41:00,75.3,72.8,29.75,NW,305,0.0,0.0,92,0.00,,,0.00,141,HR-IXPWINDi_r2_v1.2.,2013-06-27 12:41:00,
2013-06-27 08:46:00,75.6,73.1,29.75,NW,305,0.0,0.0,92,0.00,,,0.00,106,HR-IXPWINDi_r2_v1.2.,2013-06-27 12:46:00,
2013-06-27 08:51:00,75.8,73.3,29.75,NW,305,0.0,0.0,92,0.00,,,0.00,90,HR-IXPWINDi_r2_v1.2.,2013-06-27 12:51:00,
2013-06-27 08:56:00,76.0,73.1,29.75,NW,305,0.0,0.0,91,0.00,,,0.00,99,HR-IXPWINDi_r2_v1.2.,2013-06-27 12:56:00,
2013-06-27 09:01:00,76.0,72.8,29.75,NW,304,0.0,0.0,90,0.00,,,0.00,143,HR-IXPWINDi_r2_v1.2.,2013-06-27 13:01:00,
2013-06-27 09:07:00,76.3,73.1,29.74,NW,304,0.0,0.0,90,0.00,,,0.00,155,HR-IXPWINDi_r2_v1.2.,2013-06-27 13:07:00,
2013-06-27 09:12:00,76.5,73.0,29.74,NW,306,0.0,2.0,89,0.00,,,0.00,125,HR-IXPWINDi_r2_v1.2.,2013-06-27 13:12:00,
2013-06-27 09:17:00,76.7,72.8,29.74,NW,306,0.0,2.0,88,0.00,,,0.00,176,HR-IXPWINDi_r2_v1.2.,2013-06-27 13:17:00,
2013-06-27 09:22:00,77.0,72.8,29.74,NW,305,0.0,0.0,87,0.00,,,0.00,139,HR-IXPWINDi_r2_v1.2.,2013-06-27 13:22:00,
2013-06-27 09:28:00,77.2,72.6,29.74,NW,306,0.0,0.0,86,0.00,,,0.00,141,HR-IXPWINDi_r2_v1.2.,2013-06-27 13:28:00,
2013-06-27 09:33:00,77.4,72.1,29.74,NW,305,0.0,0.0,84,0.00,,,0.00,107,HR-IXPWINDi_r2_v1.2.,2013-06-27 13:33:00,
2013-06-27 09:38:00,77.2,71.2,29.74,NW,306,0.0,0.0,82,0.00,,,0.00,104,HR-IXPWINDi_r2_v1.2.,2013-06-27 13:38:00,
2013-06-27 09:43:00,77.4,71.1,29.74,SW,227,1.0,2.0,81,0.00,,,0.00,88,HR-IXPWINDi_r2_v1.2.,2013-06-27 13:43:00,
2013-06-27 09:48:00,77.6,70.5,29.74,South,191,0.0,3.0,79,0.00,,,0.00,88,HR-IXPWINDi_r2_v1.2.,2013-06-27 13:48:00,
2013-06-27 09:54:00,77.7,70.6,29.74,South,191,2.0,3.0,79,0.00,,,0.00,93,HR-IXPWINDi_r2_v1.2.,2013-06-27 13:54:00,
2013-06-27 09:59:00,77.9,70.8,29.74,South,191,0.0,3.0,79,0.00,,,0.00,106,HR-IXPWINDi_r2_v1.2.,2013-06-27 13:59:00,
2013-06-27 10:04:00,78.3,71.2,29.74,South,191,0.0,2.0,79,0.00,,,0.00,104,HR-IXPWINDi_r2_v1.2.,2013-06-27 14:04:00,
2013-06-27 10:09:00,78.5,70.6,29.73,South,188,1.0,2.0,77,0.00,,,0.00,102,HR-IXPWINDi_r2_v1.2.,2013-06-27 14:09:00,
2013-06-27 10:15:00,78.6,70.3,29.73,South,188,1.0,3.0,76,0.00,,,0.00,100,HR-IXPWINDi_r2_v1.2.,2013-06-27 14:15:00,
2013-06-27 10:20:00,78.8,70.2,29.73,South,188,0.0,3.0,75,0.00,,,0.00,97,HR-IXPWINDi_r2_v1.2.,2013-06-27 14:20:00,
2013-06-27 10:25:00,79.0,70.7,29.73,South,188,2.0,3.0,76,0.00,,,0.00,95,HR-IXPWINDi_r2_v1.2.,2013-06-27 14:25:00,
2013-06-27 10:30:00,79.0,69.9,29.73,South,188,0.0,2.0,74,0.00,,,0.00,99,HR-IXPWINDi_r2_v1.2.,2013-06-27 14:30:00,
2013-06-27 10:35:00,79.4,69.9,29.72,South,185,1.0,3.0,73,0.00,,,0.00,118,HR-IXPWINDi_r2_v1.2.,2013-06-27 14:35:00,
2013-06-27 10:40:00,79.6,69.7,29.72,South,185,2.0,3.0,72,0.00,,,0.00,113,HR-IXPWINDi_r2_v1.2.,2013-06-27 14:40:00,
2013-06-27 10:45:00,79.8,69.9,29.72,South,185,0.0,3.0,72,0.00,,,0.00,102,HR-IXPWINDi_r2_v1.2.,2013-06-27 14:45:00,
2013-06-27 10:51:00,79.9,70.0,29.72,South,185,1.0,2.0,72,0.00,,,0.00,113,HR-IXPWINDi_r2_v1.2.,2013-06-27 14:51:00,
2013-06-27 10:56:00,80.1,70.2,29.72,South,185,1.0,3.0,72,0.00,,,0.00,125,HR-IXPWINDi_r2_v1.2.,2013-06-27 14:56:00,
2013-06-27 11:01:00,80.1,69.0,29.72,South,182,1.0,3.0,69,0.00,,,0.00,120,HR-IXPWINDi_r2_v1.2.,2013-06-27 15:01:00,
2013-06-27 11:06:00,80.3,70.0,29.72,South,184,2.0,3.0,71,0.00,,,0.00,134,HR-IXPWINDi_r2_v1.2.,2013-06-27 15:06:00,
2013-06-27 11:11:00,80.5,69.3,29.72,South,182,0.0,3.0,69,0.00,,,0.00,165,HR-IXPWINDi_r2_v1.2.,2013-06-27 15:11:00,
2013-06-27 11:16:00,80.5,68.9,29.72,South,182,1.0,3.0,68,0.00,,,0.00,169,HR-IXPWINDi_r2_v1.2.,2013-06-27 15:16:00,
2013-06-27 11:21:00,80.7,69.1,29.72,South,182,0.0,3.0,68,0.00,,,0.00,199,HR-IXPWINDi_r2_v1.2.,2013-06-27 15:21:00,
2013-06-27 11:27:00,80.5,69.3,29.72,South,184,2.0,3.0,69,0.00,,,0.00,155,HR-IXPWINDi_r2_v1.2.,2013-06-27 15:27:00,
2013-06-27 11:32:00,80.3,69.6,29.72,South,182,0.0,3.0,70,0.00,,,0.00,116,HR-IXPWINDi_r2_v1.2.,2013-06-27 15:32:00,
2013-06-27 11:37:00,80.3,70.4,29.72,South,182,2.0,2.0,72,0.00,,,0.00,185,HR-IXPWINDi_r2_v1.2.,2013-06-27 15:37:00,
2013-06-27 11:42:00,80.5,70.2,29.72,South,182,0.0,2.0,71,0.00,,,0.00,192,HR-IXPWINDi_r2_v1.2.,2013-06-27 15:42:00,
2013-06-27 11:47:00,80.7,70.0,29.72,South,184,1.0,2.0,70,0.00,,,0.00,199,HR-IXPWINDi_r2_v1.2.,2013-06-27 15:47:00,
2013-06-27 11:52:00,80.9,69.7,29.72,South,182,1.0,3.0,69,0.00,,,0.00,190,HR-IXPWINDi_r2_v1.2.,2013-06-27 15:52:00,
2013-06-27 11:58:00,80.9,69.7,29.72,South,184,2.0,3.0,69,0.00,,,0.00,187,HR-IXPWINDi_r2_v1.2.,2013-06-27 15:58:00,
2013-06-27 12:03:00,80.7,69.5,29.72,South,182,0.0,3.0,69,0.00,,,0.00,178,HR-IXPWINDi_r2_v1.2.,2013-06-27 16:03:00,
2013-06-27 12:08:00,80.9,69.3,29.72,South,182,1.0,3.0,68,0.00,,,0.00,310,HR-IXPWINDi_r2_v1.2.,2013-06-27 16:08:00,
2013-06-27 12:13:00,81.4,70.2,29.72,South,182,2.0,3.0,69,0.00,,,0.00,151,HR-IXPWINDi_r2_v1.2.,2013-06-27 16:13:00,
2013-06-27 12:18:00,81.2,70.0,29.72,South,184,2.0,3.0,69,0.00,,,0.00,174,HR-IXPWINDi_r2_v1.2.,2013-06-27 16:18:00,
2013-06-27 12:23:00,81.1,69.9,29.72,South,182,0.0,3.0,69,0.00,,,0.00,269,HR-IXPWINDi_r2_v1.2.,2013-06-27 16:23:00,
2013-06-27 12:29:00,81.4,70.2,29.72,South,189,1.0,3.0,69,0.00,,,0.00,890,HR-IXPWINDi_r2_v1.2.,2013-06-27 16:29:00,
2013-06-27 12:34:00,81.6,70.4,29.72,South,189,3.0,3.0,69,0.00,,,0.00,873,HR-IXPWINDi_r2_v1.2.,2013-06-27 16:34:00,
2013-06-27 12:39:00,81.6,70.0,29.71,SSE,168,1.0,5.0,68,0.00,,,0.00,199,HR-IXPWINDi_r2_v1.2.,2013-06-27 16:39:00,
2013-06-27 12:44:00,81.2,69.1,29.71,SSE,164,1.0,5.0,67,0.00,,,0.00,225,HR-IXPWINDi_r2_v1.2.,2013-06-27 16:44:00,
2013-06-27 12:49:00,81.4,69.3,29.71,South,181,1.0,5.0,67,0.00,,,0.00,885,HR-IXPWINDi_r2_v1.2.,2013-06-27 16:49:00,
2013-06-27 12:55:00,82.2,69.7,29.70,South,175,1.0,3.0,66,0.00,,,0.00,811,HR-IXPWINDi_r2_v1.2.,2013-06-27 16:55:00,
2013-06-27 13:01:00,82.4,69.0,29.70,South,174,2.0,3.0,64,0.00,,,0.00,714,HR-IXPWINDi_r2_v1.2.,2013-06-27 17:01:00,
2013-06-27 13:06:00,82.0,69.0,29.70,South,172,2.0,5.0,65,0.00,,,0.00,781,HR-IXPWINDi_r2_v1.2.,2013-06-27 17:06:00,
2013-06-27 13:11:00,81.8,68.8,29.70,South,174,1.0,5.0,65,0.00,,,0.00,781,HR-IXPWINDi_r2_v1.2.,2013-06-27 17:11:00,
2013-06-27 13:16:00,82.2,69.2,29.70,South,174,2.0,5.0,65,0.00,,,0.00,663,HR-IXPWINDi_r2_v1.2.,2013-06-27 17:16:00,
2013-06-27 13:21:00,82.2,69.7,29.69,South,172,1.0,3.0,66,0.00,,,0.00,655,HR-IXPWINDi_r2_v1.2.,2013-06-27 17:21:00,
2013-06-27 13:26:00,82.0,69.5,29.69,South,172,0.0,5.0,66,0.00,,,0.00,753,HR-IXPWINDi_r2_v1.2.,2013-06-27 17:26:00,
2013-06-27 13:32:00,82.2,69.7,29.69,South,171,1.0,5.0,66,0.00,,,0.00,621,HR-IXPWINDi_r2_v1.2.,2013-06-27 17:32:00,
2013-06-27 13:37:00,83.0,69.5,29.69,South,172,1.0,3.0,64,0.00,,,0.00,723,HR-IXPWINDi_r2_v1.2.,2013-06-27 17:37:00,
2013-06-27 13:42:00,83.2,69.2,29.69,South,171,1.0,3.0,63,0.00,,,0.00,845,HR-IXPWINDi_r2_v1.2.,2013-06-27 17:42:00,
2013-06-27 13:47:00,83.4,69.0,29.69,South,169,0.0,3.0,62,0.00,,,0.00,280,HR-IXPWINDi_r2_v1.2.,2013-06-27 17:47:00,
2013-06-27 13:52:00,83.2,69.2,29.68,South,169,2.0,3.0,63,0.00,,,0.00,398,HR-IXPWINDi_r2_v1.2.,2013-06-27 17:52:00,
2013-06-27 13:58:00,82.6,68.7,29.68,South,169,0.0,3.0,63,0.00,,,0.00,222,HR-IXPWINDi_r2_v1.2.,2013-06-27 17:58:00,
2013-06-27 14:03:00,82.6,68.7,29.68,South,169,1.0,3.0,63,0.00,,,0.00,241,HR-IXPWINDi_r2_v1.2.,2013-06-27 18:03:00,
2013-06-27 14:08:00,81.8,68.4,29.69,South,169,2.0,3.0,64,0.00,,,0.00,524,HR-IXPWINDi_r2_v1.2.,2013-06-27 18:08:00,
2013-06-27 14:13:00,81.6,68.6,29.69,SSE,160,2.0,3.0,65,0.00,,,0.00,537,HR-IXPWINDi_r2_v1.2.,2013-06-27 18:13:00,
2013-06-27 14:18:00,81.6,68.6,29.69,SSE,162,1.0,5.0,65,0.00,,,0.00,282,HR-IXPWINDi_r2_v1.2.,2013-06-27 18:18:00,
2013-06-27 14:24:00,82.0,68.6,29.69,South,172,1.0,5.0,64,0.00,,,0.00,373,HR-IXPWINDi_r2_v1.2.,2013-06-27 18:24:00,
2013-06-27 14:29:00,82.4,69.4,29.69,South,171,0.0,4.0,65,0.00,,,0.00,223,HR-IXPWINDi_r2_v1.2.,2013-06-27 18:29:00,
2013-06-27 14:34:00,82.0,69.5,29.69,South,169,1.0,4.0,66,0.00,,,0.00,216,HR-IXPWINDi_r2_v1.2.,2013-06-27 18:34:00,
2013-06-27 14:39:00,82.0,69.5,29.68,South,181,2.0,3.0,66,0.00,,,0.00,222,HR-IXPWINDi_r2_v1.2.,2013-06-27 18:39:00,
2013-06-27 14:44:00,81.6,69.1,29.68,South,178,2.0,5.0,66,0.00,,,0.00,308,HR-IXPWINDi_r2_v1.2.,2013-06-27 18:44:00,
2013-06-27 14:50:00,81.4,69.8,29.68,South,174,3.0,5.0,68,0.00,,,0.00,287,HR-IXPWINDi_r2_v1.2.,2013-06-27 18:50:00,
2013-06-27 14:55:00,81.1,69.5,29.68,South,172,2.0,5.0,68,0.00,,,0.00,473,HR-IXPWINDi_r2_v1.2.,2013-06-27 18:55:00,
2013-06-27 15:00:00,81.2,70.0,29.68,SSE,150,5.0,6.0,69,0.00,,,0.00,528,HR-IXPWINDi_r2_v1.2.,2013-06-27 19:00:00,
2013-06-27 15:05:00,81.2,70.0,29.68,South,182,2.0,6.0,69,0.00,,,0.00,684,HR-IXPWINDi_r2_v1.2.,2013-06-27 19:05:00,
2013-06-27 15:10:00,81.4,69.3,29.68,South,178,1.0,6.0,67,0.00,,,0.00,681,HR-IXPWINDi_r2_v1.2.,2013-06-27 19:10:00,
2013-06-27 15:16:00,81.1,69.9,29.68,SSE,165,3.0,5.0,69,0.00,,,0.00,299,HR-IXPWINDi_r2_v1.2.,2013-06-27 19:16:00,
2013-06-27 15:21:00,80.9,69.3,29.68,SSE,162,1.0,5.0,68,0.00,,,0.00,315,HR-IXPWINDi_r2_v1.2.,2013-06-27 19:21:00,
2013-06-27 15:26:00,80.7,69.5,29.68,SSE,161,3.0,5.0,69,0.00,,,0.00,630,HR-IXPWINDi_r2_v1.2.,2013-06-27 19:26:00,
2013-06-27 15:31:00,80.1,69.8,29.68,SSE,161,3.0,5.0,71,0.00,,,0.00,199,HR-IXPWINDi_r2_v1.2.,2013-06-27 19:31:00,
2013-06-27 15:36:00,79.8,69.9,29.68,SSE,161,2.0,5.0,72,0.00,,,0.00,150,HR-IXPWINDi_r2_v1.2.,2013-06-27 19:36:00,
2013-06-27 15:41:00,79.8,69.9,29.68,SSE,161,2.0,5.0,72,0.00,,,0.00,243,HR-IXPWINDi_r2_v1.2.,2013-06-27 19:41:00,
2013-06-27 15:46:00,79.8,69.9,29.68,SSE,157,2.0,5.0,72,0.00,,,0.00,577,HR-IXPWINDi_r2_v1.2.,2013-06-27 19:46:00,
2013-06-27 15:51:00,80.1,70.2,29.67,SSE,164,2.0,5.0,72,0.00,,,0.00,561,HR-IXPWINDi_r2_v1.2.,2013-06-27 19:51:00,
2013-06-27 15:57:00,80.5,70.2,29.67,SSE,162,3.0,5.0,71,0.00,,,0.00,489,HR-IXPWINDi_r2_v1.2.,2013-06-27 19:57:00,
2013-06-27 16:02:00,80.7,70.4,29.67,SSE,161,0.0,5.0,71,0.00,,,0.00,273,HR-IXPWINDi_r2_v1.2.,2013-06-27 20:02:00,
2013-06-27 16:07:00,80.5,70.2,29.67,SSE,161,3.0,5.0,71,0.00,,,0.00,326,HR-IXPWINDi_r2_v1.2.,2013-06-27 20:07:00,
2013-06-27 16:12:00,80.3,70.4,29.67,SSE,160,2.0,5.0,72,0.00,,,0.00,238,HR-IXPWINDi_r2_v1.2.,2013-06-27 20:12:00,
2013-06-27 16:17:00,79.9,70.0,29.67,SSE,165,3.0,6.0,72,0.00,,,0.00,238,HR-IXPWINDi_r2_v1.2.,2013-06-27 20:17:00,
2013-06-27 16:23:00,79.8,69.9,29.67,SSE,165,3.0,6.0,72,0.00,,,0.00,290,HR-IXPWINDi_r2_v1.2.,2013-06-27 20:23:00,
2013-06-27 16:28:00,79.8,69.9,29.67,South,169,3.0,5.0,72,0.00,,,0.00,253,HR-IXPWINDi_r2_v1.2.,2013-06-27 20:28:00,
2013-06-27 16:33:00,79.6,69.7,29.67,SSE,151,2.0,6.0,72,0.00,,,0.00,229,HR-IXPWINDi_r2_v1.2.,2013-06-27 20:33:00,
2013-06-27 16:38:00,79.6,69.7,29.66,SSE,151,1.0,6.0,72,0.00,,,0.00,343,HR-IXPWINDi_r2_v1.2.,2013-06-27 20:38:00,
2013-06-27 16:43:00,79.4,69.9,29.66,SSE,164,1.0,5.0,73,0.00,,,0.00,165,HR-IXPWINDi_r2_v1.2.,2013-06-27 20:43:00,
2013-06-27 16:49:00,79.6,69.7,29.66,SSE,168,1.0,4.0,72,0.00,,,0.00,194,HR-IXPWINDi_r2_v1.2.,2013-06-27 20:49:00,
2013-06-27 16:54:00,79.6,70.1,29.66,SSE,165,2.0,6.0,73,0.00,,,0.00,169,HR-IXPWINDi_r2_v1.2.,2013-06-27 20:54:00,
2013-06-27 16:59:00,79.4,70.3,29.66,ESE,123,4.0,6.0,74,0.00,,,0.00,169,HR-IXPWINDi_r2_v1.2.,2013-06-27 20:59:00,
2013-06-27 17:04:00,79.2,70.5,29.65,SSW,195,3.0,6.0,75,0.00,,,0.00,158,HR-IXPWINDi_r2_v1.2.,2013-06-27 21:04:00,
2013-06-27 17:10:00,79.0,70.3,29.65,SSE,155,2.0,5.0,75,0.00,,,0.00,165,HR-IXPWINDi_r2_v1.2.,2013-06-27 21:10:00,
2013-06-27 17:15:00,79.0,70.7,29.65,SSE,161,3.0,5.0,76,0.00,,,0.00,169,HR-IXPWINDi_r2_v1.2.,2013-06-27 21:15:00,
2013-06-27 17:20:00,79.0,70.7,29.64,SSE,158,0.0,5.0,76,0.00,,,0.00,153,HR-IXPWINDi_r2_v1.2.,2013-06-27 21:20:00,
2013-06-27 17:25:00,79.0,70.7,29.64,SSE,157,5.0,5.0,76,0.00,,,0.00,151,HR-IXPWINDi_r2_v1.2.,2013-06-27 21:25:00,
2013-06-27 17:30:00,79.0,70.7,29.64,SSE,165,2.0,5.0,76,0.00,,,0.00,114,HR-IXPWINDi_r2_v1.2.,2013-06-27 21:30:00,
2013-06-27 17:35:00,78.8,70.5,29.64,SSE,165,2.0,5.0,76,0.00,,,0.00,109,HR-IXPWINDi_r2_v1.2.,2013-06-27 21:35:00,
2013-06-27 17:41:00,78.6,70.3,29.64,SSE,164,3.0,5.0,76,0.00,,,0.00,95,HR-IXPWINDi_r2_v1.2.,2013-06-27 21:41:00,
2013-06-27 17:46:00,78.5,70.2,29.64,South,179,1.0,4.0,76,0.00,,,0.00,86,HR-IXPWINDi_r2_v1.2.,2013-06-27 21:46:00,
2013-06-27 17:51:00,78.3,70.4,29.64,South,172,2.0,5.0,77,0.00,,,0.00,128,HR-IXPWINDi_r2_v1.2.,2013-06-27 21:51:00,
2013-06-27 17:56:00,78.3,70.4,29.64,South,175,2.0,6.0,77,0.00,,,0.00,102,HR-IXPWINDi_r2_v1.2.,2013-06-27 21:56:00,
2013-06-27 18:02:00,78.1,70.2,29.64,South,175,3.0,6.0,77,0.00,,,0.00,79,HR-IXPWINDi_r2_v1.2.,2013-06-27 22:02:00,
2013-06-27 18:07:00,77.9,70.4,29.63,South,175,1.0,5.0,78,0.00,,,0.00,70,HR-IXPWINDi_r2_v1.2.,2013-06-27 22:07:00,
2013-06-27 18:12:00,77.9,70.4,29.63,South,174,3.0,5.0,78,0.00,,,0.00,62,HR-IXPWINDi_r2_v1.2.,2013-06-27 22:12:00,
2013-06-27 18:18:00,78.1,70.2,29.63,South,175,0.0,3.0,77,0.00,,,0.00,49,HR-IXPWINDi_r2_v1.2.,2013-06-27 22:18:00,
2013-06-27 18:23:00,78.1,69.9,29.63,South,176,1.0,6.0,76,0.00,,,0.00,56,HR-IXPWINDi_r2_v1.2.,2013-06-27 22:23:00,
2013-06-27 18:28:00,78.1,69.9,29.63,South,184,0.0,6.0,76,0.00,,,0.00,53,HR-IXPWINDi_r2_v1.2.,2013-06-27 22:28:00,
2013-06-27 18:33:00,77.9,70.1,29.63,South,184,1.0,4.0,77,0.00,,,0.00,58,HR-IXPWINDi_r2_v1.2.,2013-06-27 22:33:00,
2013-06-27 18:38:00,77.9,70.1,29.64,South,184,2.0,2.0,77,0.00,,,0.00,49,HR-IXPWINDi_r2_v1.2.,2013-06-27 22:38:00,
2013-06-27 18:43:00,77.9,70.4,29.64,South,181,1.0,5.0,78,0.00,,,0.00,76,HR-IXPWINDi_r2_v1.2.,2013-06-27 22:43:00,
2013-06-27 18:49:00,77.9,70.4,29.64,South,181,1.0,5.0,78,0.00,,,0.00,62,HR-IXPWINDi_r2_v1.2.,2013-06-27 22:49:00,
2013-06-27 18:54:00,77.7,70.2,29.65,South,181,1.0,3.0,78,0.00,,,0.00,25,HR-IXPWINDi_r2_v1.2.,2013-06-27 22:54:00,
2013-06-27 18:59:00,78.1,71.4,29.65,South,181,2.0,3.0,80,0.00,,,0.00,21,HR-IXPWINDi_r2_v1.2.,2013-06-27 22:59:00,
2013-06-27 19:04:00,78.1,70.6,29.65,South,181,2.0,2.0,78,0.00,,,0.00,26,HR-IXPWINDi_r2_v1.2.,2013-06-27 23:04:00,
2013-06-27 19:10:00,77.9,70.1,29.64,South,175,1.0,3.0,77,0.00,,,0.00,18,HR-IXPWINDi_r2_v1.2.,2013-06-27 23:10:00,
2013-06-27 19:15:00,77.7,69.9,29.64,South,175,2.0,3.0,77,0.00,,,0.00,16,HR-IXPWINDi_r2_v1.2.,2013-06-27 23:15:00,
2013-06-27 19:20:00,77.6,70.1,29.64,South,175,0.0,3.0,78,0.00,,,0.00,12,HR-IXPWINDi_r2_v1.2.,2013-06-27 23:20:00,
2013-06-27 19:25:00,77.4,70.3,29.64,South,175,1.0,3.0,79,0.00,,,0.00,14,HR-IXPWINDi_r2_v1.2.,2013-06-27 23:25:00,
2013-06-27 19:30:00,77.6,70.1,29.64,South,175,2.0,3.0,78,0.00,,,0.00,14,HR-IXPWINDi_r2_v1.2.,2013-06-27 23:30:00,
2013-06-27 19:35:00,77.4,70.3,29.63,South,175,1.0,3.0,79,0.00,,,0.00,11,HR-IXPWINDi_r2_v1.2.,2013-06-27 23:35:00,
2013-06-27 19:40:00,77.2,69.8,29.63,South,179,2.0,6.0,78,0.00,,,0.00,11,HR-IXPWINDi_r2_v1.2.,2013-06-27 23:40:00,
2013-06-27 19:46:00,77.0,69.9,29.63,South,172,1.0,6.0,79,0.00,,,0.00,9,HR-IXPWINDi_r2_v1.2.,2013-06-27 23:46:00,
2013-06-27 19:51:00,76.7,69.6,29.63,SSE,168,1.0,5.0,79,0.00,,,0.00,5,HR-IXPWINDi_r2_v1.2.,2013-06-27 23:51:00,
2013-06-27 19:56:00,76.5,69.4,29.63,SSE,167,1.0,5.0,79,0.00,,,0.00,0,HR-IXPWINDi_r2_v1.2.,2013-06-27 23:56:00,
2013-06-27 20:02:00,76.3,69.6,29.63,SSE,167,1.0,5.0,80,0.00,,,0.00,0,HR-IXPWINDi_r2_v1.2.,2013-06-28 00:02:00,
2013-06-27 20:07:00,76.1,69.4,29.62,SSE,167,1.0,6.0,80,0.00,,,0.00,0,HR-IXPWINDi_r2_v1.2.,2013-06-28 00:07:00,
2013-06-27 20:12:00,76.0,69.7,29.62,South,182,0.0,6.0,81,0.00,,,0.00,0,HR-IXPWINDi_r2_v1.2.,2013-06-28 00:12:00,
2013-06-27 20:17:00,75.8,69.5,29.62,SSW,199,2.0,5.0,81,0.00,,,0.00,0,HR-IXPWINDi_r2_v1.2.,2013-06-28 00:17:00,
2013-06-27 20:22:00,75.6,69.3,29.62,SSE,160,2.0,5.0,81,0.00,,,0.00,0,HR-IXPWINDi_r2_v1.2.,2013-06-28 00:22:00,
2013-06-27 20:28:00,75.4,69.5,29.62,SSE,160,2.0,5.0,82,0.00,,,0.00,0,HR-IXPWINDi_r2_v1.2.,2013-06-28 00:28:00,
2013-06-27 20:33:00,75.3,69.4,29.62,SSE,161,2.0,5.0,82,0.00,,,0.00,0,HR-IXPWINDi_r2_v1.2.,2013-06-28 00:33:00,
2013-06-27 20:38:00,75.3,69.4,29.61,SSE,165,2.0,5.0,82,0.00,,,0.00,0,HR-IXPWINDi_r2_v1.2.,2013-06-28 00:38:00,
2013-06-27 20:44:00,75.1,69.2,29.61,SSE,164,1.0,5.0,82,0.00,,,0.00,0,HR-IXPWINDi_r2_v1.2.,2013-06-28 00:44:00,
2013-06-27 20:49:00,75.1,69.2,29.61,South,169,2.0,5.0,82,0.00,,,0.00,0,HR-IXPWINDi_r2_v1.2.,2013-06-28 00:49:00,
2013-06-27 20:54:00,75.1,69.2,29.61,South,169,1.0,5.0,82,0.00,,,0.00,0,HR-IXPWINDi_r2_v1.2.,2013-06-28 00:54:00,
2013-06-27 20:59:00,75.3,69.4,29.61,SSE,168,0.0,3.0,82,0.00,,,0.00,0,HR-IXPWINDi_r2_v1.2.,2013-06-28 00:59:00,
2013-06-27 21:04:00,75.1,69.2,29.61,South,181,0.0,3.0,82,0.00,,,0.00,0,HR-IXPWINDi_r2_v1.2.,2013-06-28 01:04:00,
2013-06-27 21:09:00,75.1,69.2,29.58,South,179,1.0,3.0,82,0.00,,,0.00,0,HR-IXPWINDi_r2_v1.2.,2013-06-28 01:09:00,
2013-06-27 21:14:00,75.1,69.2,29.58,South,178,1.0,3.0,82,0.00,,,0.00,0,HR-IXPWINDi_r2_v1.2.,2013-06-28 01:14:00,
2013-06-27 21:19:00,74.9,69.3,29.58,South,178,0.0,3.0,83,0.00,,,0.00,0,HR-IXPWINDi_r2_v1.2.,2013-06-28 01:19:00,
2013-06-27 21:25:00,75.1,69.5,29.57,South,182,1.0,4.0,83,0.00,,,0.00,0,HR-IXPWINDi_r2_v1.2.,2013-06-28 01:25:00,
2013-06-27 21:30:00,75.1,69.2,29.57,South,185,3.0,4.0,82,0.00,,,0.00,0,HR-IXPWINDi_r2_v1.2.,2013-06-28 01:30:00,
2013-06-27 21:35:00,74.9,69.3,29.56,SSE,164,2.0,6.0,83,0.00,,,0.00,0,HR-IXPWINDi_r2_v1.2.,2013-06-28 01:35:00,
2013-06-27 21:40:00,74.7,69.1,29.56,SSE,161,2.0,6.0,83,0.00,,,0.00,0,HR-IXPWINDi_r2_v1.2.,2013-06-28 01:40:00,
2013-06-27 21:46:00,74.7,69.5,29.56,SSE,165,2.0,5.0,84,0.00,,,0.00,0,HR-IXPWINDi_r2_v1.2.,2013-06-28 01:46:00,
2013-06-27 21:51:00,74.2,69.3,29.56,SSE,155,2.0,6.0,85,0.00,,,0.00,0,HR-IXPWINDi_r2_v1.2.,2013-06-28 01:51:00,
2013-06-27 21:56:00,73.7,69.5,29.56,SSE,158,3.0,6.0,87,0.00,,,0.00,0,HR-IXPWINDi_r2_v1.2.,2013-06-28 01:56:00,
2013-06-27 22:02:00,73.0,69.5,29.56,SSE,154,0.0,5.0,89,0.00,,,0.00,0,HR-IXPWINDi_r2_v1.2.,2013-06-28 02:02:00,
2013-06-27 22:07:00,72.8,69.3,29.57,SSE,152,0.0,5.0,89,0.00,,,0.00,0,HR-IXPWINDi_r2_v1.2.,2013-06-28 02:07:00,
2013-06-27 22:12:00,72.7,69.5,29.57,SSE,154,0.0,3.0,90,0.00,,,0.00,0,HR-IXPWINDi_r2_v1.2.,2013-06-28 02:12:00,
2013-06-27 22:17:00,72.7,69.9,29.57,SSE,154,1.0,2.0,91,0.00,,,0.00,0,HR-IXPWINDi_r2_v1.2.,2013-06-28 02:17:00,
2013-06-27 22:22:00,72.7,69.9,29.55,SSE,152,1.0,2.0,91,0.00,,,0.00,0,HR-IXPWINDi_r2_v1.2.,2013-06-28 02:22:00,
2013-06-27 22:27:00,72.5,69.7,29.55,SSE,154,1.0,3.0,91,0.00,,,0.00,0,HR-IXPWINDi_r2_v1.2.,2013-06-28 02:27:00,
2013-06-27 22:32:00,72.5,70.0,29.55,SSE,168,2.0,5.0,92,0.00,,,0.00,0,HR-IXPWINDi_r2_v1.2.,2013-06-28 02:32:00,
2013-06-27 22:37:00,72.7,70.2,29.54,SSE,157,2.0,5.0,92,0.00,,,0.00,0,HR-IXPWINDi_r2_v1.2.,2013-06-28 02:37:00,
2013-06-27 22:43:00,72.5,70.0,29.54,SSE,155,1.0,6.0,92,0.00,,,0.00,0,HR-IXPWINDi_r2_v1.2.,2013-06-28 02:43:00,
2013-06-27 22:48:00,72.5,70.0,29.54,SSE,157,0.0,6.0,92,0.00,,,0.00,0,HR-IXPWINDi_r2_v1.2.,2013-06-28 02:48:00,
2013-06-27 22:53:00,72.7,70.2,29.53,SSE,154,1.0,6.0,92,0.00,,,0.00,0,HR-IXPWINDi_r2_v1.2.,2013-06-28 02:53:00,
2013-06-27 22:58:00,72.8,70.6,29.53,SSE,150,3.0,6.0,93,0.00,,,0.00,0,HR-IXPWINDi_r2_v1.2.,2013-06-28 02:58:00,
2013-06-27 23:03:00,73.2,71.0,29.53,SSE,150,5.0,6.0,93,0.00,,,0.00,0,HR-IXPWINDi_r2_v1.2.,2013-06-28 03:03:00,
2013-06-27 23:08:00,73.5,71.3,29.52,SSE,147,3.0,6.0,93,0.00,,,0.00,0,HR-IXPWINDi_r2_v1.2.,2013-06-28 03:08:00,
2013-06-27 23:13:00,74.2,72.0,29.52,SSE,165,2.0,6.0,93,0.00,,,0.00,0,HR-IXPWINDi_r2_v1.2.,2013-06-28 03:13:00,
2013-06-27 23:18:00,74.4,72.2,29.52,SSE,150,2.0,7.0,93,0.00,,,0.00,0,HR-IXPWINDi_r2_v1.2.,2013-06-28 03:18:00,
2013-06-27 23:24:00,74.7,72.5,29.52,SSE,148,5.0,7.0,93,0.00,,,0.00,0,HR-IXPWINDi_r2_v1.2.,2013-06-28 03:24:00,
2013-06-27 23:29:00,74.9,72.7,29.52,SSE,150,3.0,5.0,93,0.00,,,0.00,0,HR-IXPWINDi_r2_v1.2.,2013-06-28 03:29:00,
2013-06-27 23:34:00,75.1,72.9,29.52,SSE,148,2.0,6.0,93,0.00,,,0.00,0,HR-IXPWINDi_r2_v1.2.,2013-06-28 03:34:00,
2013-06-27 23:40:00,75.1,72.9,29.51,SSE,152,3.0,6.0,93,0.00,,,0.00,0,HR-IXPWINDi_r2_v1.2.,2013-06-28 03:40:00,
2013-06-27 23:45:00,75.1,73.2,29.51,SSE,157,3.0,5.0,94,0.00,,,0.00,0,HR-IXPWINDi_r2_v1.2.,2013-06-28 03:45:00,
2013-06-27 23:50:00,75.3,73.4,29.50,SE,124,2.0,6.0,94,0.00,,,0.00,0,HR-IXPWINDi_r2_v1.2.,2013-06-28 03:50:00,
2013-06-27 23:55:00,75.4,73.5,29.50,ESE,123,2.0,6.0,94,0.00,,,0.00,0,HR-IXPWINDi_r2_v1.2.,2013-06-28 03:55:00,